Time;durP1;ratioP1;P1;durP2;ratioP2;P2;SDS_P1;SDS_P2;PMS_P1;PMS_P2;Temp;Humidity;BMP_temperature;BMP_pressure;BME280_temperature;BME280_humidity;BME280_pressure;Samples;Min_cycle;Max_cycle;Signal;HPM_P1;HPM_P2
2022/03/03 00:01:33;;;;;;;;;;;6.00;80.40;;;;;;5093623;28;19948;-87
2022/03/03 00:03:58;;;;;;;;;;;6.10;80.10;;;;;;5093869;28;20302;-86
2022/03/03 00:06:24;;;;;;;;;;;6.30;79.40;;;;;;5093582;28;20320;-86
2022/03/03 00:08:50;;;;;;;;;;;6.20;79.20;;;;;;5093375;28;19912;-86
2022/03/03 00:11:15;;;;;;;;;;;6.00;79.40;;;;;;5093241;28;19908;-86
2022/03/03 00:13:41;;;;;;;;;;;5.70;79.40;;;;;;5093495;28;19915;-85
2022/03/03 00:16:07;;;;;;;;;;;5.40;80.40;;;;;;5093599;28;19916;-85
2022/03/03 00:18:33;;;;;;;;;;;5.40;81.40;;;;;;5093406;28;19958;-86
2022/03/03 00:20:59;;;;;;;;;;;5.40;81.60;;;;;;5092205;28;20108;-86
2022/03/03 00:23:24;;;;;;;;;;;5.30;81.70;;;;;;5093405;28;19915;-86
2022/03/03 00:25:50;;;;;;;;;;;5.30;82.00;;;;;;5093338;28;19915;-86
2022/03/03 00:28:16;;;;;;;;;;;5.30;82.30;;;;;;5093323;28;19915;-86
2022/03/03 00:30:41;;;;;;;;;;;5.40;82.50;;;;;;5093114;28;19995;-86
2022/03/03 00:33:07;;;;;;;;;;;5.60;82.40;;;;;;5093249;28;19915;-86
2022/03/03 00:35:32;;;;;;;;;;;5.70;81.60;;;;;;5093195;28;20294;-86
2022/03/03 00:37:58;;;;;;;;;;;5.90;81.00;;;;;;5092975;28;19943;-86
2022/03/03 00:40:23;;;;;;;;;;;5.90;80.40;;;;;;5093134;28;19915;-86
2022/03/03 00:42:49;;;;;;;;;;;6.00;79.90;;;;;;5093416;28;19926;-86
2022/03/03 00:45:14;;;;;;;;;;;6.00;79.60;;;;;;5093150;28;19908;-86
2022/03/03 00:47:40;;;;;;;;;;;6.00;79.70;;;;;;5093082;28;19908;-86
2022/03/03 00:50:06;;;;;;;;;;;5.90;79.80;;;;;;5093053;28;20316;-86
2022/03/03 00:52:32;;;;;;;;;;;5.80;80.20;;;;;;5093092;28;20366;-86
2022/03/03 00:54:57;;;;;;;;;;;5.60;80.50;;;;;;5093046;28;19934;-85
2022/03/03 00:57:23;;;;;;;;;;;5.40;81.10;;;;;;5093180;28;20358;-86
2022/03/03 00:59:49;;;;;;;;;;;5.30;81.70;;;;;;5093076;28;20384;-86
2022/03/03 01:02:14;;;;;;;;;;;5.20;82.50;;;;;;5092969;28;19908;-86
2022/03/03 01:04:40;;;;;;;;;;;5.20;83.00;;;;;;5092957;28;19919;-86
2022/03/03 01:07:05;;;;;;;;;;;5.30;83.10;;;;;;5092945;28;19908;-86
2022/03/03 01:09:31;;;;;;;;;;;5.40;83.10;;;;;;5092839;28;19908;-86
2022/03/03 01:11:56;;;;;;;;;;;5.50;82.80;;;;;;5092904;28;19931;-86
2022/03/03 01:14:23;;;;;;;;;;;5.50;82.60;;;;;;5092864;28;19955;-86
2022/03/03 01:16:49;;;;;;;;;;;5.70;82.30;;;;;;5092783;28;19912;-86
2022/03/03 01:19:15;;;;;;;;;;;5.80;81.70;;;;;;5092842;28;19908;-86
2022/03/03 01:21:40;;;;;;;;;;;5.90;81.20;;;;;;5092836;28;19961;-86
2022/03/03 01:24:06;;;;;;;;;;;5.90;80.70;;;;;;5095187;28;19958;-86
2022/03/03 01:26:31;;;;;;;;;;;6.00;80.30;;;;;;5096627;28;19955;-86
2022/03/03 01:28:57;;;;;;;;;;;6.00;79.60;;;;;;5096544;28;19909;-85
2022/03/03 01:31:22;;;;;;;;;;;5.80;80.20;;;;;;5096503;28;19909;-86
2022/03/03 01:33:48;;;;;;;;;;;5.60;80.60;;;;;;5096495;28;19908;-86
2022/03/03 01:36:13;;;;;;;;;;;5.40;81.10;;;;;;5096190;28;20049;-86
2022/03/03 01:38:39;;;;;;;;;;;5.30;81.50;;;;;;5096381;28;19912;-85
2022/03/03 01:41:05;;;;;;;;;;;5.20;81.90;;;;;;5096376;28;20003;-86
2022/03/03 01:43:30;;;;;;;;;;;5.20;82.80;;;;;;5096315;28;19923;-86
2022/03/03 01:45:56;;;;;;;;;;;5.20;83.10;;;;;;5096291;28;19923;-86
2022/03/03 01:48:21;;;;;;;;;;;5.30;82.90;;;;;;5096225;28;19912;-86
2022/03/03 01:50:47;;;;;;;;;;;5.30;82.50;;;;;;5096225;28;19908;-86
2022/03/03 01:53:12;;;;;;;;;;;5.20;82.20;;;;;;5094853;28;19915;-86
2022/03/03 01:55:38;;;;;;;;;;;5.00;82.10;;;;;;5096146;28;19908;-86
2022/03/03 01:58:04;;;;;;;;;;;4.90;82.40;;;;;;5095980;28;19913;-86
2022/03/03 02:00:30;;;;;;;;;;;4.70;83.00;;;;;;5095988;28;19999;-86
2022/03/03 02:02:55;;;;;;;;;;;4.80;83.40;;;;;;5095934;28;19916;-86
2022/03/03 02:05:21;;;;;;;;;;;4.90;83.60;;;;;;5096125;28;19915;-85
2022/03/03 02:07:46;;;;;;;;;;;4.90;83.40;;;;;;5095893;28;19908;-85
2022/03/03 02:10:12;;;;;;;;;;;4.80;83.50;;;;;;5096000;28;19908;-86
2022/03/03 02:12:38;;;;;;;;;;;4.70;83.40;;;;;;5095825;28;20443;-86
2022/03/03 02:15:04;;;;;;;;;;;4.80;83.60;;;;;;5095727;28;20362;-85
2022/03/03 02:17:29;;;;;;;;;;;4.80;83.70;;;;;;5095590;28;20398;-86
2022/03/03 02:19:55;;;;;;;;;;;4.80;84.00;;;;;;5095621;28;19932;-86
2022/03/03 02:22:21;;;;;;;;;;;4.80;84.30;;;;;;5095562;28;19908;-85
2022/03/03 02:24:46;;;;;;;;;;;4.90;84.20;;;;;;5095497;28;19999;-86
2022/03/03 02:27:12;;;;;;;;;;;5.00;84.10;;;;;;5095763;28;20285;-86
2022/03/03 02:29:38;;;;;;;;;;;5.10;83.60;;;;;;5095311;28;20262;-86
2022/03/03 02:32:04;;;;;;;;;;;5.10;83.80;;;;;;5095434;28;19908;-86
2022/03/03 02:34:30;;;;;;;;;;;5.10;83.90;;;;;;5095539;28;19920;-86
2022/03/03 02:36:55;;;;;;;;;;;5.10;84.00;;;;;;5095080;28;19920;-86
2022/03/03 02:39:21;;;;;;;;;;;5.10;83.90;;;;;;5095591;28;19962;-86
2022/03/03 02:41:47;;;;;;;;;;;5.00;83.30;;;;;;5095204;28;20360;-86
2022/03/03 02:44:12;;;;;;;;;;;5.00;83.20;;;;;;5095438;28;19944;-85
2022/03/03 02:46:38;;;;;;;;;;;4.90;83.40;;;;;;5095090;28;19994;-86
2022/03/03 02:49:05;;;;;;;;;;;4.40;84.50;;;;;;5095075;28;19909;-86
2022/03/03 02:51:30;;;;;;;;;;;4.30;85.60;;;;;;5095064;28;19912;-86
2022/03/03 02:53:56;;;;;;;;;;;4.40;85.70;;;;;;5094991;28;20007;-86
2022/03/03 02:56:21;;;;;;;;;;;4.50;85.50;;;;;;5094895;28;20284;-85
2022/03/03 02:58:47;;;;;;;;;;;4.50;85.70;;;;;;5094854;28;20273;-86
2022/03/03 03:01:12;;;;;;;;;;;4.50;85.90;;;;;;5095071;28;19943;-86
2022/03/03 03:03:38;;;;;;;;;;;4.50;85.90;;;;;;5094727;28;20338;-85
2022/03/03 03:06:04;;;;;;;;;;;4.60;85.80;;;;;;5094652;28;19962;-85
2022/03/03 03:08:29;;;;;;;;;;;4.50;85.60;;;;;;5094550;28;19938;-85
2022/03/03 03:10:55;;;;;;;;;;;4.50;85.60;;;;;;5094546;28;19931;-85
2022/03/03 03:13:21;;;;;;;;;;;4.40;86.70;;;;;;5094523;28;19915;-85
2022/03/03 03:15:46;;;;;;;;;;;4.40;87.20;;;;;;5094461;28;20385;-86
2022/03/03 03:18:13;;;;;;;;;;;4.40;87.30;;;;;;5094408;28;20018;-86
2022/03/03 03:20:39;;;;;;;;;;;4.40;87.10;;;;;;5094427;28;19908;-86
2022/03/03 03:23:06;;;;;;;;;;;4.40;86.80;;;;;;5094397;28;19908;-85
2022/03/03 03:25:32;;;;;;;;;;;4.50;86.30;;;;;;5094317;28;19908;-85
2022/03/03 03:27:57;;;;;;;;;;;4.50;86.10;;;;;;5093017;28;19915;-85
2022/03/03 03:30:23;;;;;;;;;;;4.50;85.90;;;;;;5094466;28;19908;-85
2022/03/03 03:32:48;;;;;;;;;;;4.40;85.80;;;;;;5094472;28;20414;-86
2022/03/03 03:35:14;;;;;;;;;;;4.40;85.90;;;;;;5094195;28;20281;-86
2022/03/03 03:37:39;;;;;;;;;;;4.30;86.30;;;;;;5093894;28;19969;-85
2022/03/03 03:40:06;;;;;;;;;;;4.40;86.40;;;;;;5094274;28;19946;-86
2022/03/03 03:42:31;;;;;;;;;;;4.60;86.60;;;;;;5092683;28;19916;-86
2022/03/03 03:44:57;;;;;;;;;;;4.80;86.40;;;;;;5093949;28;19915;-86
2022/03/03 03:47:23;;;;;;;;;;;4.90;85.90;;;;;;5093418;28;20000;-86
2022/03/03 03:49:48;;;;;;;;;;;4.80;85.60;;;;;;5093828;28;19939;-86
2022/03/03 03:52:14;;;;;;;;;;;4.70;85.50;;;;;;5093843;28;19925;-86
2022/03/03 03:54:39;;;;;;;;;;;4.60;85.60;;;;;;5093805;28;20356;-86
2022/03/03 03:57:05;;;;;;;;;;;4.60;85.60;;;;;;5093700;28;19934;-86
2022/03/03 03:59:31;;;;;;;;;;;4.50;85.80;;;;;;5093734;28;19908;-86
2022/03/03 04:01:57;;;;;;;;;;;4.50;85.80;;;;;;5093690;28;20282;-86
2022/03/03 04:04:22;;;;;;;;;;;4.50;85.50;;;;;;5093664;28;20320;-85
2022/03/03 04:06:48;;;;;;;;;;;4.50;85.10;;;;;;5093668;28;19909;-86
2022/03/03 04:09:13;;;;;;;;;;;4.40;84.70;;;;;;5093532;28;19909;-85
2022/03/03 04:11:39;;;;;;;;;;;4.40;84.40;;;;;;5093562;28;19917;-85
2022/03/03 04:14:04;;;;;;;;;;;4.40;84.20;;;;;;5093540;28;19908;-86
2022/03/03 04:16:30;;;;;;;;;;;4.40;84.60;;;;;;5093481;28;19993;-86
2022/03/03 04:18:56;;;;;;;;;;;4.40;85.00;;;;;;5093425;28;19943;-85
2022/03/03 04:21:21;;;;;;;;;;;4.40;85.10;;;;;;5093437;28;19954;-86
2022/03/03 04:23:47;;;;;;;;;;;4.40;84.80;;;;;;5093363;28;19947;-86
2022/03/03 04:26:13;;;;;;;;;;;4.50;84.40;;;;;;5093335;28;19915;-85
2022/03/03 04:28:38;;;;;;;;;;;4.40;84.10;;;;;;5093294;28;19908;-86
2022/03/03 04:31:04;;;;;;;;;;;4.50;84.20;;;;;;5093489;28;19934;-86
2022/03/03 04:33:29;;;;;;;;;;;4.50;83.70;;;;;;5091986;28;19962;-86
2022/03/03 04:35:56;;;;;;;;;;;4.60;83.30;;;;;;5100166;22;19951;-85
2022/03/03 04:38:21;;;;;;;;;;;4.60;82.90;;;;;;5093179;28;19995;-86
2022/03/03 04:40:47;;;;;;;;;;;4.50;83.10;;;;;;5093783;28;19940;-86
2022/03/03 04:43:12;;;;;;;;;;;4.40;83.10;;;;;;5093216;28;20426;-85
2022/03/03 04:45:38;;;;;;;;;;;4.10;83.30;;;;;;5093209;28;20342;-86
2022/03/03 04:48:03;;;;;;;;;;;4.00;83.80;;;;;;5093159;28;20374;-85
2022/03/03 04:50:30;;;;;;;;;;;3.90;83.90;;;;;;5093188;28;20412;-85
2022/03/03 04:52:56;;;;;;;;;;;3.80;84.10;;;;;;5093134;28;19909;-85
2022/03/03 04:55:21;;;;;;;;;;;3.70;84.60;;;;;;5093098;28;19908;-86
2022/03/03 04:57:48;;;;;;;;;;;3.80;84.90;;;;;;5093287;28;19962;-86
2022/03/03 05:00:13;;;;;;;;;;;3.90;84.90;;;;;;5097131;28;19908;-86
2022/03/03 05:02:39;;;;;;;;;;;3.90;84.50;;;;;;5097101;28;19908;-85
2022/03/03 05:05:05;;;;;;;;;;;4.00;84.30;;;;;;5097089;28;19951;-85
2022/03/03 05:07:31;;;;;;;;;;;4.10;84.00;;;;;;5097055;28;19918;-86
2022/03/03 05:09:56;;;;;;;;;;;4.20;83.50;;;;;;5096946;28;19912;-86
2022/03/03 05:12:22;;;;;;;;;;;4.30;83.10;;;;;;5096941;28;19915;-85
2022/03/03 05:14:47;;;;;;;;;;;4.30;82.70;;;;;;5096868;28;19914;-85
2022/03/03 05:17:13;;;;;;;;;;;4.40;82.40;;;;;;5096710;28;20392;-86
2022/03/03 05:19:39;;;;;;;;;;;4.40;81.70;;;;;;5096723;28;19916;-85
2022/03/03 05:22:04;;;;;;;;;;;4.40;81.30;;;;;;5096732;28;19910;-85
2022/03/03 05:24:30;;;;;;;;;;;4.40;81.10;;;;;;5096697;28;20392;-86
2022/03/03 05:26:55;;;;;;;;;;;4.40;81.10;;;;;;5096653;28;20331;-86
2022/03/03 05:29:21;;;;;;;;;;;4.20;81.10;;;;;;5096493;28;19908;-85
2022/03/03 05:31:46;;;;;;;;;;;4.00;81.40;;;;;;5096560;28;19908;-86
2022/03/03 05:34:12;;;;;;;;;;;3.90;81.20;;;;;;5096593;28;19914;-86
2022/03/03 05:36:41;;;;;;;;;;;3.70;81.80;;;;;;5096234;28;20009;-85
2022/03/03 05:39:07;;;;;;;;;;;3.40;82.40;;;;;;5096433;28;19974;-85
2022/03/03 05:41:34;;;;;;;;;;;3.30;83.00;;;;;;5096406;28;19919;-85
2022/03/03 05:44:00;;;;;;;;;;;3.20;83.40;;;;;;5096387;28;19953;-86
2022/03/03 05:46:25;;;;;;;;;;;3.20;83.70;;;;;;5096158;28;19907;-86
2022/03/03 05:48:51;;;;;;;;;;;3.20;83.80;;;;;;5096252;28;19908;-86
2022/03/03 05:51:17;;;;;;;;;;;3.10;83.70;;;;;;5096237;28;20373;-85
2022/03/03 05:53:43;;;;;;;;;;;3.10;84.20;;;;;;5096129;28;19917;-86
2022/03/03 05:56:09;;;;;;;;;;;3.00;84.50;;;;;;5096111;28;19908;-86
2022/03/03 05:58:45;;;;;;;;;;;3.00;84.70;;;;;;5095948;28;19914;-86
2022/03/03 06:01:11;;;;;;;;;;;3.10;84.90;;;;;;5095371;28;19966;-86
2022/03/03 06:03:36;;;;;;;;;;;3.20;84.60;;;;;;5095363;28;20015;-86
2022/03/03 06:06:08;;;;;;;;;;;3.30;84.20;;;;;;5095304;28;19998;-86
2022/03/03 06:08:41;;;;;;;;;;;3.30;83.90;;;;;;5095025;28;19935;-86
2022/03/03 06:11:10;;;;;;;;;;;3.40;83.70;;;;;;5075785;28;19963;-86
2022/03/03 06:13:38;;;;;;;;;;;3.40;83.50;;;;;;5088254;28;19967;-86
2022/03/03 06:16:04;;;;;;;;;;;3.40;83.40;;;;;;5095028;28;19986;-86
2022/03/03 06:18:32;;;;;;;;;;;3.40;83.40;;;;;;5094434;28;20024;-85
2022/03/03 06:20:58;;;;;;;;;;;3.40;83.00;;;;;;5094882;28;20006;-85
2022/03/03 06:23:23;;;;;;;;;;;3.30;83.10;;;;;;5094531;28;19912;-86
2022/03/03 06:25:53;;;;;;;;;;;3.40;82.90;;;;;;5091130;28;19919;-86
2022/03/03 06:28:19;;;;;;;;;;;3.40;82.80;;;;;;5090955;28;19912;-86
2022/03/03 06:30:44;;;;;;;;;;;3.30;83.00;;;;;;5096416;28;19919;-86
2022/03/03 06:33:10;;;;;;;;;;;3.40;83.20;;;;;;5094413;28;19950;-86
2022/03/03 06:35:36;;;;;;;;;;;3.30;83.10;;;;;;5095206;28;20285;-86
2022/03/03 06:38:07;;;;;;;;;;;3.20;83.30;;;;;;5094319;28;19921;-86
2022/03/03 06:40:34;;;;;;;;;;;3.10;83.80;;;;;;5094772;28;19978;-86
2022/03/03 06:43:00;;;;;;;;;;;3.10;84.00;;;;;;5081845;28;19962;-86
2022/03/03 06:45:27;;;;;;;;;;;3.00;84.30;;;;;;5078880;28;19912;-86
2022/03/03 06:47:53;;;;;;;;;;;3.00;84.70;;;;;;5092931;28;19912;-86
2022/03/03 06:50:19;;;;;;;;;;;3.00;85.00;;;;;;5093658;28;20007;-86
2022/03/03 06:52:46;;;;;;;;;;;3.00;84.90;;;;;;5094623;28;20010;-86
2022/03/03 06:55:13;;;;;;;;;;;3.00;85.60;;;;;;5090928;28;20027;-86
2022/03/03 06:57:39;;;;;;;;;;;3.00;86.70;;;;;;5094786;28;20385;-86
2022/03/03 07:00:05;;;;;;;;;;;3.00;86.80;;;;;;5094811;28;19908;-86
2022/03/03 07:02:31;;;;;;;;;;;3.00;86.80;;;;;;5094189;28;20378;-85
2022/03/03 07:04:57;;;;;;;;;;;3.10;86.80;;;;;;5094484;28;20369;-85
2022/03/03 07:07:23;;;;;;;;;;;3.40;86.30;;;;;;5094535;28;19920;-85
2022/03/03 07:09:49;;;;;;;;;;;3.50;85.80;;;;;;5094217;28;20388;-85
2022/03/03 07:12:16;;;;;;;;;;;3.60;84.40;;;;;;5094257;28;19947;-85
2022/03/03 07:14:41;;;;;;;;;;;3.80;83.80;;;;;;5094337;28;20608;-85
2022/03/03 07:17:12;;;;;;;;;;;3.90;83.50;;;;;;5090627;28;20271;-85
2022/03/03 07:19:37;;;;;;;;;;;4.00;83.30;;;;;;5101542;28;19923;-85
2022/03/03 07:22:03;;;;;;;;;;;4.10;82.00;;;;;;5092932;28;20331;-85
2022/03/03 07:24:30;;;;;;;;;;;4.20;81.80;;;;;;5093863;28;19912;-85
2022/03/03 07:27:00;;;;;;;;;;;4.20;82.40;;;;;;5098094;28;19957;-85
2022/03/03 07:29:28;;;;;;;;;;;4.30;82.70;;;;;;5103230;28;19960;-85
2022/03/03 07:31:58;;;;;;;;;;;4.40;82.90;;;;;;5090437;28;19912;-85
2022/03/03 07:34:34;;;;;;;;;;;4.50;82.40;;;;;;5095695;28;19919;-85
2022/03/03 07:37:12;;;;;;;;;;;4.60;81.30;;;;;;5088751;28;20061;-85
2022/03/03 07:39:39;;;;;;;;;;;4.80;79.40;;;;;;5079048;28;19957;-85
2022/03/03 07:42:05;;;;;;;;;;;5.00;78.30;;;;;;5092244;28;19922;-86
2022/03/03 07:44:31;;;;;;;;;;;5.10;77.40;;;;;;5092562;28;20305;-85
2022/03/03 07:46:58;;;;;;;;;;;5.40;75.30;;;;;;5092910;28;20298;-85
2022/03/03 07:49:25;;;;;;;;;;;5.50;75.20;;;;;;5090580;28;19912;-85
2022/03/03 07:51:51;;;;;;;;;;;5.60;74.30;;;;;;5094030;28;19916;-84
2022/03/03 07:54:17;;;;;;;;;;;5.70;73.30;;;;;;5098349;28;19916;-84
2022/03/03 07:56:43;;;;;;;;;;;5.80;73.50;;;;;;5098270;28;19948;-84
2022/03/03 07:59:11;;;;;;;;;;;5.80;73.30;;;;;;5105656;28;19908;-84
2022/03/03 08:01:37;;;;;;;;;;;5.90;73.10;;;;;;5104981;28;19919;-84
2022/03/03 08:04:03;;;;;;;;;;;5.90;73.00;;;;;;5088827;28;19958;-84
2022/03/03 08:06:30;;;;;;;;;;;6.00;73.50;;;;;;5087948;28;20316;-84
2022/03/03 08:08:58;;;;;;;;;;;6.10;72.90;;;;;;5093240;28;19912;-84
2022/03/03 08:11:24;;;;;;;;;;;6.10;72.50;;;;;;5094285;28;19942;-84
2022/03/03 08:13:52;;;;;;;;;;;6.30;72.00;;;;;;5092965;28;19912;-84
2022/03/03 08:16:18;;;;;;;;;;;6.40;71.40;;;;;;5101966;28;20369;-85
2022/03/03 08:18:44;;;;;;;;;;;6.50;71.00;;;;;;5113649;28;19915;-84
2022/03/03 08:21:10;;;;;;;;;;;6.70;70.00;;;;;;5113541;28;19908;-84
2022/03/03 08:23:36;;;;;;;;;;;6.60;69.60;;;;;;5103402;28;19918;-84
2022/03/03 08:26:03;;;;;;;;;;;6.40;70.20;;;;;;5084065;28;19999;-84
2022/03/03 08:28:30;;;;;;;;;;;6.40;70.50;;;;;;5095070;28;19913;-84
2022/03/03 08:30:57;;;;;;;;;;;6.40;70.80;;;;;;5085390;28;19912;-84
2022/03/03 08:33:32;;;;;;;;;;;6.40;71.10;;;;;;5094695;28;20077;-84
2022/03/03 08:35:59;;;;;;;;;;;6.60;70.70;;;;;;5092481;28;20204;-84
2022/03/03 08:38:32;;;;;;;;;;;6.70;70.70;;;;;;5091808;28;19976;-84
2022/03/03 08:40:59;;;;;;;;;;;6.70;70.90;;;;;;5094089;28;19916;-84
2022/03/03 08:43:26;;;;;;;;;;;6.90;70.50;;;;;;5092715;28;20357;-85
2022/03/03 08:45:53;;;;;;;;;;;7.00;70.20;;;;;;5092941;28;19909;-84
2022/03/03 08:48:23;;;;;;;;;;;7.20;69.80;;;;;;5091797;28;19973;-84
2022/03/03 08:50:50;;;;;;;;;;;7.40;69.40;;;;;;5092320;28;19995;-85
2022/03/03 08:53:16;;;;;;;;;;;7.40;69.90;;;;;;5090433;28;19912;-85
2022/03/03 08:55:41;;;;;;;;;;;7.50;69.50;;;;;;5092127;28;20362;-84
2022/03/03 08:58:07;;;;;;;;;;;7.70;68.40;;;;;;5097359;28;20421;-84
2022/03/03 09:00:32;;;;;;;;;;;7.70;67.70;;;;;;5097679;28;20436;-84
2022/03/03 09:02:59;;;;;;;;;;;7.70;68.20;;;;;;5089945;28;19919;-84
2022/03/03 09:05:24;;;;;;;;;;;7.70;67.90;;;;;;5088021;28;19958;-84
2022/03/03 09:07:50;;;;;;;;;;;7.80;68.20;;;;;;5108876;28;19994;-84
2022/03/03 09:10:16;;;;;;;;;;;7.90;67.80;;;;;;5113154;28;19912;-84
2022/03/03 09:12:43;;;;;;;;;;;7.90;67.70;;;;;;5100329;28;20009;-84
2022/03/03 09:15:09;;;;;;;;;;;8.10;67.90;;;;;;5102378;28;20329;-84
2022/03/03 09:17:35;;;;;;;;;;;8.30;67.30;;;;;;5108621;28;19920;-85
2022/03/03 09:20:02;;;;;;;;;;;8.40;66.80;;;;;;5093203;28;19920;-85
2022/03/03 09:22:28;;;;;;;;;;;8.70;65.20;;;;;;5090489;28;19912;-85
2022/03/03 09:24:54;;;;;;;;;;;8.90;64.40;;;;;;5072648;28;19962;-85
2022/03/03 09:27:19;;;;;;;;;;;9.00;63.90;;;;;;5080864;28;19912;-85
2022/03/03 09:29:45;;;;;;;;;;;9.20;64.80;;;;;;5091653;28;20000;-85
2022/03/03 09:32:13;;;;;;;;;;;9.10;62.90;;;;;;5092764;28;19916;-84
2022/03/03 09:34:39;;;;;;;;;;;9.00;62.80;;;;;;5091400;28;19939;-84
2022/03/03 09:37:04;;;;;;;;;;;8.90;64.70;;;;;;5092064;28;20319;-84
2022/03/03 09:39:30;;;;;;;;;;;8.90;64.70;;;;;;5082029;28;19971;-84
2022/03/03 09:41:56;;;;;;;;;;;8.90;64.80;;;;;;5085425;28;20296;-84
2022/03/03 09:44:22;;;;;;;;;;;8.90;66.00;;;;;;5093681;28;20380;-84
2022/03/03 09:46:48;;;;;;;;;;;8.90;66.30;;;;;;5095749;28;20378;-84
2022/03/03 09:49:13;;;;;;;;;;;9.10;65.50;;;;;;5095366;28;19971;-84
2022/03/03 09:51:39;;;;;;;;;;;9.20;64.90;;;;;;5095706;28;20000;-84
2022/03/03 09:54:05;;;;;;;;;;;9.30;65.80;;;;;;5094278;28;20305;-84
2022/03/03 09:56:31;;;;;;;;;;;9.40;64.30;;;;;;5103484;28;20017;-84
2022/03/03 09:58:56;;;;;;;;;;;9.60;64.00;;;;;;5095844;28;20467;-85
2022/03/03 10:01:26;;;;;;;;;;;9.80;63.40;;;;;;5095583;28;19935;-84
2022/03/03 10:03:52;;;;;;;;;;;9.90;63.20;;;;;;5095151;28;19919;-85
2022/03/03 10:06:20;;;;;;;;;;;10.10;62.80;;;;;;5093751;28;19998;-85
2022/03/03 10:08:46;;;;;;;;;;;10.40;61.90;;;;;;5095143;28;19958;-85
2022/03/03 10:11:12;;;;;;;;;;;10.50;61.40;;;;;;5094038;28;19916;-85
2022/03/03 10:13:51;;;;;;;;;;;10.60;60.90;;;;;;5095625;28;20010;-85
2022/03/03 10:16:23;;;;;;;;;;;10.40;58.90;;;;;;5092307;28;20397;-85
2022/03/03 10:18:50;;;;;;;;;;;10.30;60.50;;;;;;5101036;28;19919;-85
2022/03/03 10:21:17;;;;;;;;;;;10.30;61.20;;;;;;5095145;28;19916;-84
2022/03/03 10:23:42;;;;;;;;;;;10.30;61.00;;;;;;5095590;28;19908;-84
2022/03/03 10:26:08;;;;;;;;;;;10.40;57.90;;;;;;5095574;28;19931;-84
2022/03/03 10:28:35;;;;;;;;;;;10.30;57.00;;;;;;5095508;28;19908;-84
2022/03/03 10:31:00;;;;;;;;;;;10.40;58.70;;;;;;5095372;28;19923;-84
2022/03/03 10:33:28;;;;;;;;;;;10.40;56.80;;;;;;5095430;28;19908;-85
2022/03/03 10:35:57;;;;;;;;;;;10.40;57.40;;;;;;5095113;28;20057;-84
2022/03/03 10:38:23;;;;;;;;;;;10.50;57.80;;;;;;5095509;28;19916;-85
2022/03/03 10:40:48;;;;;;;;;;;10.70;58.10;;;;;;5099984;28;20354;-84
2022/03/03 10:43:14;;;;;;;;;;;10.60;58.10;;;;;;5109148;28;20264;-84
2022/03/03 10:45:52;;;;;;;;;;;10.70;57.40;;;;;;5115411;27;19907;-85
2022/03/03 10:48:21;;;;;;;;;;;10.80;58.60;;;;;;5101516;28;19908;-85
2022/03/03 10:50:47;;;;;;;;;;;11.00;58.90;;;;;;5095375;28;19908;-85
2022/03/03 10:53:16;;;;;;;;;;;11.20;58.90;;;;;;5094988;28;20426;-84
2022/03/03 10:55:58;;;;;;;;;;;11.40;53.90;;;;;;5094986;28;19919;-84
2022/03/03 10:58:42;;;;;;;;;;;11.10;53.10;;;;;;5095088;28;19912;-84
2022/03/03 11:01:08;;;;;;;;;;;11.00;53.70;;;;;;5093624;28;19912;-84
2022/03/03 11:03:35;;;;;;;;;;;11.10;56.20;;;;;;5094509;28;19947;-84
2022/03/03 11:06:02;;;;;;;;;;;11.10;55.20;;;;;;5099282;28;19978;-84
2022/03/03 11:08:27;;;;;;;;;;;11.40;55.80;;;;;;5114317;28;19912;-85
2022/03/03 11:10:53;;;;;;;;;;;11.60;54.50;;;;;;5114741;28;20376;-84
2022/03/03 11:13:18;;;;;;;;;;;11.90;53.90;;;;;;5115129;28;20418;-85
2022/03/03 11:15:44;;;;;;;;;;;12.20;54.00;;;;;;5114950;28;19908;-84
2022/03/03 11:18:10;;;;;;;;;;;12.10;52.10;;;;;;5114857;28;20373;-85
2022/03/03 11:20:36;;;;;;;;;;;12.00;52.70;;;;;;5114904;28;20354;-85
2022/03/03 11:23:01;;;;;;;;;;;12.10;50.90;;;;;;5114826;28;20324;-85
2022/03/03 11:25:32;;;;;;;;;;;12.20;50.90;;;;;;5115054;28;19908;-85
2022/03/03 11:28:15;;;;;;;;;;;12.40;49.10;;;;;;5114727;28;19912;-84
2022/03/03 11:30:41;;;;;;;;;;;12.40;49.20;;;;;;5114530;28;20349;-85
2022/03/03 11:33:22;;;;;;;;;;;12.60;51.70;;;;;;5114664;28;19908;-84
2022/03/03 11:35:48;;;;;;;;;;;12.90;51.20;;;;;;5114377;28;19995;-85
2022/03/03 11:38:15;;;;;;;;;;;13.20;49.00;;;;;;5114470;28;20285;-84
2022/03/03 11:40:52;;;;;;;;;;;13.10;45.50;;;;;;5114517;28;19982;-85
2022/03/03 11:43:18;;;;;;;;;;;13.20;44.80;;;;;;5114432;28;19990;-85
2022/03/03 11:46:01;;;;;;;;;;;13.20;44.10;;;;;;5114388;28;20344;-84
2022/03/03 11:48:38;;;;;;;;;;;13.20;45.70;;;;;;5114436;28;20013;-84
2022/03/03 11:51:22;;;;;;;;;;;13.10;44.90;;;;;;5114297;28;19908;-84
2022/03/03 11:53:49;;;;;;;;;;;13.30;42.20;;;;;;5114306;28;19915;-84
2022/03/03 11:56:14;;;;;;;;;;;13.40;40.80;;;;;;5114213;28;19907;-84
2022/03/03 11:58:41;;;;;;;;;;;13.50;40.50;;;;;;5114433;27;20010;-85
2022/03/03 12:01:11;;;;;;;;;;;13.50;40.70;;;;;;5114130;28;19908;-84
2022/03/03 12:03:55;;;;;;;;;;;13.50;41.40;;;;;;5114085;28;19933;-84
2022/03/03 12:06:34;;;;;;;;;;;13.30;44.80;;;;;;5113885;28;19951;-84
2022/03/03 12:09:14;;;;;;;;;;;13.10;46.00;;;;;;5113916;28;19912;-84
2022/03/03 12:11:39;;;;;;;;;;;12.90;43.20;;;;;;5114027;28;19915;-84
2022/03/03 12:14:25;;;;;;;;;;;12.80;44.90;;;;;;5113942;28;19907;-84
2022/03/03 12:16:50;;;;;;;;;;;12.90;44.90;;;;;;5113665;28;19912;-85
2022/03/03 12:19:16;;;;;;;;;;;13.40;44.60;;;;;;5113864;28;20281;-84
2022/03/03 12:21:43;;;;;;;;;;;13.60;42.30;;;;;;5113397;28;20388;-85
2022/03/03 12:24:14;;;;;;;;;;;13.90;42.70;;;;;;5113513;28;19930;-85
2022/03/03 12:26:55;;;;;;;;;;;14.20;42.00;;;;;;5111644;28;19908;-85
2022/03/03 12:29:27;;;;;;;;;;;14.70;41.30;;;;;;5075573;28;19912;-85
2022/03/03 12:31:53;;;;;;;;;;;15.30;39.30;;;;;;5076703;28;19912;-85
2022/03/03 12:34:20;;;;;;;;;;;15.00;39.40;;;;;;5097991;28;20394;-85
2022/03/03 12:36:45;;;;;;;;;;;15.30;40.40;;;;;;5077035;22;20018;-85
2022/03/03 12:39:12;;;;;;;;;;;15.80;38.10;;;;;;5027752;28;20390;-85
2022/03/03 12:41:40;;;;;;;;;;;16.40;38.30;;;;;;5048386;28;19920;-85
2022/03/03 12:44:13;;;;;;;;;;;16.30;37.60;;;;;;5046199;28;19924;-85
2022/03/03 12:46:39;;;;;;;;;;;15.70;37.00;;;;;;5050806;28;19944;-85
2022/03/03 12:49:06;;;;;;;;;;;16.20;36.90;;;;;;5047130;28;19920;-85
2022/03/03 12:51:32;;;;;;;;;;;15.60;38.10;;;;;;5043761;28;19921;-85
2022/03/03 12:54:02;;;;;;;;;;;15.50;37.80;;;;;;5038759;28;19921;-85
2022/03/03 12:56:28;;;;;;;;;;;15.40;40.10;;;;;;5047094;28;19913;-85
2022/03/03 12:58:54;;;;;;;;;;;16.00;36.70;;;;;;5045945;28;19924;-85
2022/03/03 13:01:20;;;;;;;;;;;16.80;36.10;;;;;;5047309;28;19913;-84
2022/03/03 13:03:46;;;;;;;;;;;16.70;35.60;;;;;;5049804;28;19958;-85
2022/03/03 13:06:11;;;;;;;;;;;16.80;35.90;;;;;;5042242;28;19917;-85
2022/03/03 13:08:37;;;;;;;;;;;17.30;34.50;;;;;;5046455;28;20032;-85
2022/03/03 13:11:04;;;;;;;;;;;17.50;33.70;;;;;;5050946;28;19913;-85
2022/03/03 13:13:30;;;;;;;;;;;17.70;35.20;;;;;;5051092;28;19920;-85
2022/03/03 13:15:56;;;;;;;;;;;18.10;34.00;;;;;;5041656;28;20333;-85
2022/03/03 13:18:26;;;;;;;;;;;18.60;33.00;;;;;;5047190;28;19920;-85
2022/03/03 13:20:56;;;;;;;;;;;18.40;32.90;;;;;;5045197;28;20036;-85
2022/03/03 13:23:22;;;;;;;;;;;18.70;31.30;;;;;;5053981;28;19916;-85
2022/03/03 13:26:09;;;;;;;;;;;18.00;32.60;;;;;;5051607;28;19913;-85
2022/03/03 13:28:38;;;;;;;;;;;18.00;33.40;;;;;;5053021;28;19935;-85
2022/03/03 13:31:03;;;;;;;;;;;18.40;31.70;;;;;;5055275;28;19913;-85
2022/03/03 13:33:49;;;;;;;;;;;18.80;30.90;;;;;;5048108;28;19935;-85
2022/03/03 13:36:20;;;;;;;;;;;18.50;31.30;;;;;;5051752;28;20031;-85
2022/03/03 13:38:46;;;;;;;;;;;18.10;33.20;;;;;;5054964;28;19921;-85
2022/03/03 13:41:18;;;;;;;;;;;18.10;32.80;;;;;;5050215;28;19923;-85
2022/03/03 13:43:44;;;;;;;;;;;18.40;31.80;;;;;;5048635;28;19936;-86
2022/03/03 13:46:09;;;;;;;;;;;19.10;30.70;;;;;;5056781;28;20275;-86
2022/03/03 13:48:35;;;;;;;;;;;19.90;28.50;;;;;;5047518;28;20263;-86
2022/03/03 13:51:01;;;;;;;;;;;20.20;29.00;;;;;;5054071;28;19913;-86
2022/03/03 13:53:27;;;;;;;;;;;19.90;28.90;;;;;;5059104;28;20003;-86
2022/03/03 13:56:02;;;;;;;;;;;20.30;30.00;;;;;;5031667;28;19966;-86
2022/03/03 13:58:28;;;;;;;;;;;20.80;28.50;;;;;;5050124;28;19924;-86
2022/03/03 14:00:54;;;;;;;;;;;20.60;28.20;;;;;;5052520;28;19912;-86
2022/03/03 14:03:20;;;;;;;;;;;19.50;29.10;;;;;;5050472;28;19921;-85
2022/03/03 14:05:47;;;;;;;;;;;19.20;30.40;;;;;;5049718;28;19928;-85
2022/03/03 14:08:28;;;;;;;;;;;19.90;29.80;;;;;;5052356;28;19913;-86
2022/03/03 14:10:54;;;;;;;;;;;20.30;28.60;;;;;;5047308;28;20323;-86
2022/03/03 14:13:21;;;;;;;;;;;20.20;28.60;;;;;;5049011;28;19991;-86
2022/03/03 14:15:47;;;;;;;;;;;19.80;29.00;;;;;;5049035;28;19920;-86
2022/03/03 14:18:17;;;;;;;;;;;19.70;30.30;;;;;;5050051;28;20047;-86
2022/03/03 14:20:43;;;;;;;;;;;19.80;30.00;;;;;;5051052;28;19952;-85
2022/03/03 14:23:08;;;;;;;;;;;19.60;29.80;;;;;;5052077;28;19912;-86
2022/03/03 14:25:34;;;;;;;;;;;20.00;28.40;;;;;;5044345;28;19920;-86